createdAt,value
2019-02-07T00:00:13.577Z,0.31
2019-02-07T00:05:13.593Z,0.31
2019-02-07T00:10:13.595Z,0.25
2019-02-07T00:15:13.591Z,0.25
2019-02-07T00:20:13.597Z,0.25
2019-02-07T00:25:13.601Z,0.31
2019-02-07T00:30:13.567Z,0.38
2019-02-07T00:35:13.578Z,0.38
2019-02-07T00:40:13.592Z,0.38
2019-02-07T00:45:13.579Z,0.31
2019-02-07T00:50:13.584Z,0.31
2019-02-07T00:55:13.608Z,0.25
2019-02-07T01:00:13.695Z,0.25
2019-02-07T01:05:13.599Z,0.25
2019-02-07T01:10:13.624Z,0.19
2019-02-07T01:15:13.613Z,0.19
2019-02-07T01:20:13.635Z,0.19
2019-02-07T01:25:13.628Z,0.13
2019-02-07T01:30:13.630Z,0.13
2019-02-07T01:35:13.626Z,0.13
2019-02-07T01:40:13.637Z,0.06
2019-02-07T01:45:13.636Z,0
2019-02-07T01:50:13.612Z,0.06
2019-02-07T01:55:13.612Z,0
2019-02-07T02:00:13.639Z,-0.13
2019-02-07T02:05:13.620Z,-0.19
2019-02-07T02:10:13.631Z,-0.13
2019-02-07T02:15:23.688Z,-0.19
2019-02-07T02:20:13.653Z,-0.13
2019-02-07T02:25:13.654Z,0
2019-02-07T02:30:13.666Z,0.06
2019-02-07T02:35:13.669Z,0.06
2019-02-07T02:40:13.665Z,0.06
2019-02-07T02:45:13.670Z,0.13
2019-02-07T02:50:13.669Z,0.13
2019-02-07T02:55:13.681Z,0.19
2019-02-07T03:00:13.672Z,0.13
2019-02-07T03:05:13.672Z,0.13
2019-02-07T03:10:13.674Z,0.13
2019-02-07T03:15:13.704Z,0.06
2019-02-07T03:20:13.693Z,0.06
2019-02-07T03:25:13.687Z,0
2019-02-07T03:30:13.689Z,0.06
2019-02-07T03:35:13.693Z,0.06
2019-02-07T03:40:13.712Z,0
2019-02-07T03:45:13.701Z,-0.06
2019-02-07T03:50:13.696Z,0
2019-02-07T03:55:13.700Z,0.06
2019-02-07T04:00:13.704Z,0.06
2019-02-07T04:05:13.700Z,0.06
2019-02-07T04:10:13.702Z,0
2019-02-07T04:15:13.702Z,-0.06
2019-02-07T04:20:13.722Z,-0.13
2019-02-07T04:25:13.706Z,0
2019-02-07T04:30:13.731Z,0.06
2019-02-07T04:35:13.710Z,0.13
2019-02-07T04:40:13.732Z,0.19
2019-02-07T04:45:13.722Z,0.44
2019-02-07T04:50:13.728Z,0.5
2019-02-07T04:55:13.729Z,0.5
2019-02-07T05:00:13.739Z,0.56
2019-02-07T05:05:13.733Z,0.44
2019-02-07T05:10:13.750Z,0.44
2019-02-07T05:15:13.750Z,0.38
2019-02-07T05:20:13.736Z,0.38
2019-02-07T05:25:13.743Z,0.31
2019-02-07T05:30:13.750Z,0.38
2019-02-07T05:35:13.746Z,0.38
2019-02-07T05:40:13.743Z,0.31
2019-02-07T05:45:13.748Z,0.25
2019-02-07T05:50:13.761Z,0.19
2019-02-07T05:55:13.764Z,0.25
2019-02-07T06:00:13.883Z,0.25
2019-02-07T06:05:13.815Z,0.44
2019-02-07T06:10:13.840Z,0.5
2019-02-07T06:15:13.767Z,0.56
2019-02-07T06:20:13.767Z,0.63
2019-02-07T06:25:13.767Z,0.88
2019-02-07T06:30:13.784Z,0.94
2019-02-07T06:35:13.765Z,1
2019-02-07T06:40:13.785Z,1.06
2019-02-07T06:45:13.805Z,1.19
2019-02-07T06:50:13.775Z,1.25
2019-02-07T06:55:13.778Z,1.38
2019-02-07T07:00:13.792Z,1.5
2019-02-07T07:05:13.800Z,1.63
2019-02-07T07:10:13.790Z,1.75
2019-02-07T07:15:13.794Z,1.94
2019-02-07T07:20:13.800Z,2.13
2019-02-07T07:25:13.811Z,2.31
2019-02-07T07:30:13.801Z,2.31
2019-02-07T07:35:13.805Z,2.25
2019-02-07T07:40:13.820Z,2.25
2019-02-07T07:45:13.805Z,2.25
2019-02-07T07:50:13.803Z,2.25
2019-02-07T07:55:13.844Z,2.25
2019-02-07T08:00:13.814Z,2.38
2019-02-07T08:05:13.902Z,2.5
2019-02-07T08:10:13.783Z,2.5
2019-02-07T08:15:13.836Z,2.5
2019-02-07T08:20:13.831Z,2.5
2019-02-07T08:25:13.796Z,2.44
2019-02-07T08:30:13.829Z,2.44
2019-02-07T08:35:13.839Z,2.44
2019-02-07T08:40:13.839Z,2.44
2019-02-07T08:45:13.856Z,2.44
2019-02-07T08:50:13.849Z,2.44
2019-02-07T08:55:13.842Z,2.5
2019-02-07T09:00:13.856Z,2.63
2019-02-07T09:05:13.853Z,2.75
2019-02-07T09:10:13.859Z,2.88
2019-02-07T09:15:13.866Z,2.88
2019-02-07T09:20:13.864Z,2.88
2019-02-07T09:25:13.861Z,2.81
2019-02-07T09:30:13.883Z,2.81
2019-02-07T09:35:13.864Z,2.81
2019-02-07T09:40:13.988Z,2.81
2019-02-07T09:45:13.855Z,2.88
2019-02-07T09:50:13.863Z,2.94
2019-02-07T09:55:13.971Z,3
2019-02-07T10:00:13.866Z,3.06
2019-02-07T10:05:13.928Z,3.19
2019-02-07T10:10:13.878Z,3.38
2019-02-07T10:15:14.390Z,3.63
2019-02-07T10:20:13.886Z,3.63
2019-02-07T10:25:13.881Z,3.44
2019-02-07T10:30:13.853Z,3.38
2019-02-07T10:35:22.566Z,3.38
2019-02-07T10:40:13.908Z,3.44
2019-02-07T10:45:13.890Z,3.56
2019-02-07T10:50:13.909Z,3.5
2019-02-07T10:55:13.877Z,3.69
2019-02-07T11:00:13.906Z,3.75
2019-02-07T11:05:13.899Z,3.75
2019-02-07T11:10:14.011Z,3.56
2019-02-07T11:15:13.901Z,3.31
2019-02-07T11:20:13.908Z,3.06
2019-02-07T11:25:13.907Z,2.63
2019-02-07T11:30:13.945Z,2.44
2019-02-07T11:35:13.927Z,2.44
2019-02-07T11:40:13.920Z,2.5
2019-02-07T11:45:13.999Z,2.56
2019-02-07T11:50:14.035Z,2.69
2019-02-07T11:55:13.921Z,2.69
2019-02-07T12:00:14.027Z,2.81
2019-02-07T12:05:13.937Z,3.13
2019-02-07T12:10:13.942Z,3.25
2019-02-07T12:15:13.934Z,3.38
2019-02-07T12:20:13.943Z,3.63
2019-02-07T12:25:13.946Z,3.75
2019-02-07T12:30:13.970Z,3.69
2019-02-07T12:35:13.919Z,3.75
2019-02-07T12:40:13.948Z,3.69
2019-02-07T12:45:13.922Z,3.75
2019-02-07T12:50:13.935Z,3.94
2019-02-07T12:55:13.965Z,3.94
2019-02-07T13:00:13.939Z,3.81
2019-02-07T13:05:13.971Z,3.81
2019-02-07T13:10:13.964Z,3.81
2019-02-07T13:15:14.006Z,3.5
2019-02-07T13:20:13.985Z,3.19
2019-02-07T13:25:13.971Z,2.81
2019-02-07T13:30:14.025Z,2.63
2019-02-07T13:35:14.027Z,2.63
2019-02-07T13:40:13.998Z,2.69
2019-02-07T13:45:13.977Z,2.75
2019-02-07T13:50:13.988Z,2.94
2019-02-07T13:55:13.978Z,3.06
2019-02-07T14:00:13.987Z,3.13
2019-02-07T14:05:14.021Z,3.13
2019-02-07T14:10:13.989Z,3.13
2019-02-07T14:15:13.976Z,3.13
2019-02-07T14:20:14.010Z,3.06
2019-02-07T14:25:13.973Z,3.13
2019-02-07T14:30:13.979Z,3.13
2019-02-07T14:35:14.014Z,3.13
2019-02-07T14:40:13.980Z,3.13
2019-02-07T14:45:13.978Z,3.19
2019-02-07T14:50:15.109Z,3.19
2019-02-07T14:55:14.001Z,3.25
2019-02-07T15:00:14.021Z,3.25
2019-02-07T15:05:14.023Z,3.44
2019-02-07T15:10:14.025Z,3.5
2019-02-07T15:15:14.027Z,3.44
2019-02-07T15:20:14.031Z,3.38
2019-02-07T15:25:14.028Z,3.31
2019-02-07T15:30:14.041Z,3.31
2019-02-07T15:35:14.037Z,3.38
2019-02-07T15:40:14.029Z,3.38
2019-02-07T15:45:14.042Z,3.44
2019-02-07T15:50:14.052Z,3.44
2019-02-07T15:55:14.054Z,3.44
2019-02-07T16:00:14.044Z,3.44
2019-02-07T16:05:14.053Z,3.44
2019-02-07T16:10:14.051Z,3.44
2019-02-07T16:15:14.030Z,3.44
2019-02-07T16:20:14.062Z,3.44
2019-02-07T16:25:14.044Z,3.5
2019-02-07T16:30:14.039Z,3.5
2019-02-07T16:35:14.056Z,3.5
2019-02-07T16:40:14.056Z,3.44
2019-02-07T16:45:14.056Z,3.38
2019-02-07T16:50:14.071Z,3.31
2019-02-07T16:55:14.070Z,3.19
2019-02-07T17:00:14.086Z,3.13
2019-02-07T17:05:14.063Z,3
2019-02-07T17:10:14.065Z,3
2019-02-07T17:15:14.073Z,3
2019-02-07T17:20:14.796Z,3.06
2019-02-07T17:25:14.083Z,3.19
2019-02-07T17:30:14.078Z,3.19
2019-02-07T17:35:14.081Z,3.25
2019-02-07T17:40:14.101Z,3.19
2019-02-07T17:45:14.112Z,3.19
2019-02-07T17:50:14.086Z,3.13
2019-02-07T17:55:14.086Z,3.06
2019-02-07T18:00:14.109Z,3.06
2019-02-07T18:05:14.107Z,3
2019-02-07T18:10:14.107Z,3
2019-02-07T18:15:14.116Z,3
2019-02-07T18:20:14.115Z,3.06
2019-02-07T18:25:14.100Z,3.06
2019-02-07T18:30:14.118Z,3.06
2019-02-07T18:35:14.107Z,3.13
2019-02-07T18:40:14.112Z,3.19
2019-02-07T18:45:14.129Z,3.19
2019-02-07T18:50:14.112Z,3.13
2019-02-07T18:55:14.114Z,3.13
2019-02-07T19:00:14.133Z,3.19
2019-02-07T19:05:14.122Z,3.06
2019-02-07T19:10:14.148Z,3.06
2019-02-07T19:15:14.143Z,3
2019-02-07T19:20:14.132Z,2.94
2019-02-07T19:25:14.131Z,2.81
2019-02-07T19:30:14.145Z,2.75
2019-02-07T19:35:14.174Z,2.75
2019-02-07T19:40:14.149Z,2.75
2019-02-07T19:45:14.184Z,2.56
2019-02-07T19:50:14.144Z,2.56
2019-02-07T19:55:14.145Z,2.5
2019-02-07T20:00:14.198Z,2.44
2019-02-07T20:05:14.155Z,2.38
2019-02-07T20:10:14.173Z,2.44
2019-02-07T20:15:14.172Z,2.44
2019-02-07T20:20:14.298Z,2.44
2019-02-07T20:25:14.151Z,2.44
2019-02-07T20:30:14.155Z,2.44
2019-02-07T20:35:14.173Z,2.38
2019-02-07T20:40:14.187Z,2.31
2019-02-07T20:45:14.181Z,2.19
2019-02-07T20:50:14.192Z,2.13
2019-02-07T20:55:14.183Z,2.06
2019-02-07T21:00:14.176Z,2.06
2019-02-07T21:05:14.202Z,1.94
2019-02-07T21:10:14.181Z,1.94
2019-02-07T21:15:18.477Z,1.88
2019-02-07T21:20:14.236Z,1.88
2019-02-07T21:25:14.197Z,1.88
2019-02-07T21:30:14.207Z,1.94
2019-02-07T21:35:14.211Z,1.94
2019-02-07T21:40:14.211Z,1.94
2019-02-07T21:45:14.219Z,1.94
2019-02-07T21:50:14.212Z,1.94
2019-02-07T21:55:14.222Z,1.94
2019-02-07T22:00:14.227Z,1.94
2019-02-07T22:05:14.231Z,2
2019-02-07T22:10:14.231Z,2
2019-02-07T22:15:14.287Z,2
2019-02-07T22:20:14.233Z,2
2019-02-07T22:25:14.232Z,1.94
2019-02-07T22:30:14.241Z,2
2019-02-07T22:35:14.329Z,2
2019-02-07T22:40:14.286Z,2.06
2019-02-07T22:45:14.243Z,2.06
2019-02-07T22:50:14.249Z,2.06
2019-02-07T22:55:14.253Z,2.13
2019-02-07T23:00:14.246Z,2.13
2019-02-07T23:05:14.261Z,2.13
2019-02-07T23:10:14.254Z,2.25
2019-02-07T23:15:14.253Z,2.31
2019-02-07T23:20:14.254Z,2.38
2019-02-07T23:25:14.259Z,2.31
2019-02-07T23:30:14.264Z,2.31
2019-02-07T23:35:14.275Z,2.31
2019-02-07T23:40:14.246Z,2.38
2019-02-07T23:45:14.232Z,2.44
2019-02-07T23:50:14.284Z,2.44
2019-02-07T23:55:14.245Z,2.5
